createdAt,value
2022-12-14T00:01:54.698Z,100411.47
2022-12-14T00:04:22.606Z,100401.94
2022-12-14T00:06:50.650Z,100404.66
2022-12-14T00:09:18.648Z,100405.34
2022-12-14T00:11:46.726Z,100396.97
2022-12-14T00:14:16.070Z,100396.78
2022-12-14T00:16:44.008Z,100396.75
2022-12-14T00:19:12.135Z,100397.75
2022-12-14T00:21:40.066Z,100394.16
2022-12-14T00:24:08.310Z,100383.53
2022-12-14T00:26:36.283Z,100395.19
2022-12-14T00:29:04.455Z,100385.25
2022-12-14T00:31:33.929Z,100388.06
2022-12-14T00:34:02.168Z,100383.91
2022-12-14T00:36:31.453Z,100388.34
2022-12-14T00:38:59.901Z,100388.44
2022-12-14T00:41:27.912Z,100381.91
2022-12-14T00:43:55.965Z,100382.91
2022-12-14T00:46:23.966Z,100382.81
2022-12-14T00:48:53.462Z,100379.38
2022-12-14T00:51:21.431Z,100367.78
2022-12-14T00:53:49.415Z,100368.47
2022-12-14T00:56:17.358Z,100371.41
2022-12-14T00:58:50.730Z,100372.75
2022-12-14T01:01:19.083Z,100372.00
2022-12-14T01:03:47.763Z,100381.81
2022-12-14T01:06:19.861Z,100380.06
2022-12-14T01:08:48.271Z,100366.88
2022-12-14T01:11:16.332Z,100385.53
2022-12-14T01:13:44.349Z,100378.50
2022-12-14T01:16:14.388Z,100378.44
2022-12-14T01:18:44.479Z,100354.63
2022-12-14T01:21:14.707Z,100372.16
2022-12-14T01:23:44.870Z,100365.06
2022-12-14T01:26:14.414Z,100369.13
2022-12-14T01:28:43.027Z,100367.50
2022-12-14T01:31:13.669Z,100367.16
2022-12-14T01:33:41.750Z,100354.28
2022-12-14T01:36:11.596Z,100360.19
2022-12-14T01:38:39.825Z,100357.38
2022-12-14T01:41:11.413Z,100352.56
2022-12-14T01:43:50.057Z,100349.91
2022-12-14T01:46:22.695Z,100348.38
2022-12-14T01:48:54.688Z,100346.03
2022-12-14T01:51:24.071Z,100352.50
2022-12-14T01:53:52.126Z,100348.81
2022-12-14T01:56:21.882Z,100348.84
2022-12-14T01:58:50.545Z,100344.88
2022-12-14T02:01:18.642Z,100342.31
2022-12-14T02:03:50.375Z,100343.44
2022-12-14T02:06:22.849Z,100342.75
2022-12-14T02:08:53.445Z,100330.81
2022-12-14T02:11:31.208Z,100315.72
2022-12-14T02:13:59.219Z,100330.75
2022-12-14T02:16:27.701Z,100332.19
2022-12-14T02:18:55.759Z,100326.91
2022-12-14T02:21:32.040Z,100329.38
2022-12-14T02:24:24.840Z,100324.19
2022-12-14T02:27:22.491Z,100325.03
2022-12-14T02:30:03.706Z,100321.50
2022-12-14T02:32:53.952Z,100317.19
2022-12-14T02:35:33.836Z,100316.22
2022-12-14T02:38:12.428Z,100315.66
2022-12-14T02:40:47.072Z,100321.06
2022-12-14T02:43:23.801Z,100317.81
2022-12-14T02:46:01.434Z,100315.25
2022-12-14T02:48:36.994Z,100315.09
2022-12-14T02:51:14.831Z,100310.59
2022-12-14T02:53:49.840Z,100302.69
2022-12-14T02:56:24.434Z,100298.41
2022-12-14T02:58:53.732Z,100301.19
2022-12-14T03:01:25.886Z,100304.41
2022-12-14T03:03:53.966Z,100307.88
2022-12-14T03:06:26.914Z,100296.25
2022-12-14T03:08:58.056Z,100297.97
2022-12-14T03:11:32.582Z,100297.28
2022-12-14T03:14:06.676Z,100292.47
2022-12-14T03:16:40.158Z,100281.56
2022-12-14T03:19:14.378Z,100283.72
2022-12-14T03:21:47.285Z,100282.00
2022-12-14T03:24:20.757Z,100273.66
2022-12-14T03:26:54.751Z,100272.47
2022-12-14T03:29:25.300Z,100277.97
2022-12-14T03:31:57.339Z,100269.84
2022-12-14T03:34:30.519Z,100263.88
2022-12-14T03:37:07.203Z,100264.91
2022-12-14T03:39:38.586Z,100261.66
2022-12-14T03:42:16.307Z,100263.88
2022-12-14T03:44:50.142Z,100270.94
2022-12-14T03:47:36.252Z,100267.47
2022-12-14T03:50:11.390Z,100250.91
2022-12-14T03:52:45.935Z,100260.41
2022-12-14T03:55:25.812Z,100262.09
2022-12-14T03:58:09.896Z,100258.97
2022-12-14T04:00:44.306Z,100252.94
2022-12-14T04:03:19.631Z,100248.44
2022-12-14T04:05:53.689Z,100246.59
2022-12-14T04:08:32.596Z,100244.66
2022-12-14T04:11:21.541Z,100249.69
2022-12-14T04:14:17.548Z,100241.56
2022-12-14T04:17:06.538Z,100237.34
2022-12-14T04:19:42.490Z,100244.81
2022-12-14T04:22:14.865Z,100240.13
2022-12-14T04:25:04.404Z,100228.56
2022-12-14T04:27:38.506Z,100232.94
2022-12-14T04:30:09.027Z,100232.38
2022-12-14T04:32:40.317Z,100224.75
2022-12-14T04:35:15.354Z,100226.19
2022-12-14T04:37:49.208Z,100221.56
2022-12-14T04:40:22.649Z,100216.72
2022-12-14T04:42:55.954Z,100208.00
2022-12-14T04:45:29.426Z,100216.84
2022-12-14T04:48:04.964Z,100219.34
2022-12-14T04:50:38.579Z,100214.38
2022-12-14T04:53:12.105Z,100217.09
2022-12-14T04:55:44.393Z,100208.28
2022-12-14T04:58:17.826Z,100211.72
2022-12-14T05:00:59.423Z,100216.09
2022-12-14T05:03:32.286Z,100206.84
2022-12-14T05:06:10.166Z,100211.50
2022-12-14T05:08:57.339Z,100193.88
2022-12-14T05:11:52.493Z,100209.78
2022-12-14T05:14:23.298Z,100199.56
2022-12-14T05:16:51.654Z,100200.69
2022-12-14T05:19:19.728Z,100199.69
2022-12-14T05:21:49.101Z,100199.72
2022-12-14T05:24:18.131Z,100199.50
2022-12-14T05:26:46.388Z,100197.03
2022-12-14T05:29:15.136Z,100189.41
2022-12-14T05:31:49.127Z,100186.88
2022-12-14T05:34:17.935Z,100187.88
2022-12-14T05:36:45.943Z,100181.28
2022-12-14T05:39:15.587Z,100181.97
2022-12-14T05:41:44.471Z,100177.50
2022-12-14T05:44:12.401Z,100168.09
2022-12-14T05:46:40.484Z,100169.84
2022-12-14T05:49:08.447Z,100163.03
2022-12-14T05:51:36.657Z,100168.44
2022-12-14T05:54:05.340Z,100159.09
2022-12-14T05:56:34.802Z,100161.38
2022-12-14T05:59:03.572Z,100161.56
2022-12-14T06:01:31.813Z,100164.09
2022-12-14T06:04:00.079Z,100166.28
2022-12-14T06:06:28.086Z,100174.22
2022-12-14T06:08:56.063Z,100177.72
2022-12-14T06:11:24.466Z,100169.66
2022-12-14T06:13:53.867Z,100173.91
2022-12-14T06:16:23.989Z,100169.66
2022-12-14T06:18:53.575Z,100165.59
2022-12-14T06:21:23.137Z,100140.78
2022-12-14T06:23:51.138Z,100160.66
2022-12-14T06:26:19.783Z,100159.56
2022-12-14T06:28:48.081Z,100150.28
2022-12-14T06:31:20.018Z,100159.09
2022-12-14T06:33:48.484Z,100157.34
2022-12-14T06:36:19.704Z,100162.75
2022-12-14T06:38:47.986Z,100156.59
2022-12-14T06:41:15.939Z,100158.28
2022-12-14T06:43:44.429Z,100151.59
2022-12-14T06:46:21.480Z,100157.38
2022-12-14T06:48:51.339Z,100150.13
2022-12-14T06:51:19.799Z,100158.47
2022-12-14T06:53:50.937Z,100140.72
2022-12-14T06:56:20.378Z,100147.69
2022-12-14T06:58:48.792Z,100144.16
2022-12-14T07:01:20.483Z,100138.78
2022-12-14T07:03:49.451Z,100141.28
2022-12-14T07:06:17.827Z,100142.25
2022-12-14T07:08:46.291Z,100130.16
2022-12-14T07:11:16.079Z,100140.22
2022-12-14T07:13:44.529Z,100142.06
2022-12-14T07:16:17.449Z,100141.09
2022-12-14T07:18:46.888Z,100134.91
2022-12-14T07:21:18.247Z,100125.44
2022-12-14T07:23:47.475Z,100120.00
2022-12-14T07:26:17.303Z,100124.13
2022-12-14T07:28:46.200Z,100121.47
2022-12-14T07:31:16.781Z,100118.81
2022-12-14T07:33:46.328Z,100122.72
2022-12-14T07:36:16.560Z,100115.63
2022-12-14T07:38:46.392Z,100108.50
2022-12-14T07:41:22.079Z,100125.00
2022-12-14T07:43:51.846Z,100134.06
2022-12-14T07:46:21.947Z,100127.16
2022-12-14T07:48:53.297Z,100128.59
2022-12-14T07:51:23.546Z,100127.31
2022-12-14T07:53:52.212Z,100130.00
2022-12-14T07:56:21.758Z,100142.59
2022-12-14T07:58:50.202Z,100135.50
2022-12-14T08:01:20.094Z,100136.09
2022-12-14T08:03:50.011Z,100137.81
2022-12-14T08:06:21.544Z,100133.03
2022-12-14T08:08:49.947Z,100132.91
2022-12-14T08:11:18.321Z,100132.53
2022-12-14T08:13:46.844Z,100130.69
2022-12-14T08:16:16.694Z,100130.31
2022-12-14T08:18:45.492Z,100120.19
2022-12-14T08:21:15.365Z,100128.53
2022-12-14T08:23:44.719Z,100125.81
2022-12-14T08:26:12.669Z,100115.81
2022-12-14T08:28:40.704Z,100116.03
2022-12-14T08:31:11.128Z,100120.56
2022-12-14T08:33:40.715Z,100116.28
2022-12-14T08:36:10.886Z,100114.81
2022-12-14T08:38:39.768Z,100126.47
2022-12-14T08:41:10.692Z,100117.00
2022-12-14T08:43:40.195Z,100118.03
2022-12-14T08:46:09.359Z,100112.66
2022-12-14T08:48:37.856Z,100113.69
2022-12-14T08:51:07.811Z,100114.28
2022-12-14T08:53:36.782Z,100102.94
2022-12-14T08:56:06.232Z,100103.13
2022-12-14T08:58:36.233Z,100109.25
2022-12-14T09:01:06.520Z,100107.63
2022-12-14T09:03:34.989Z,100103.38
2022-12-14T09:06:04.698Z,100096.31
2022-12-14T09:08:32.753Z,100098.94
2022-12-14T09:11:00.918Z,100095.47
2022-12-14T09:13:29.732Z,100092.09
2022-12-14T09:16:01.069Z,100100.09
2022-12-14T09:18:29.858Z,100097.66
2022-12-14T09:20:58.714Z,100097.81
2022-12-14T09:23:29.134Z,100086.59
2022-12-14T09:26:05.422Z,100084.41
2022-12-14T09:28:35.363Z,100093.94
2022-12-14T09:31:07.231Z,100097.47
2022-12-14T09:33:35.347Z,100088.84
2022-12-14T09:36:04.886Z,100087.19
2022-12-14T09:38:34.256Z,100083.00
2022-12-14T09:41:07.471Z,100068.09
2022-12-14T09:43:42.384Z,100086.69
2022-12-14T09:46:43.143Z,100080.72
2022-12-14T09:49:25.386Z,100086.78
2022-12-14T09:51:55.489Z,100084.28
2022-12-14T09:54:27.709Z,100082.59
2022-12-14T09:56:58.978Z,100084.41
2022-12-14T09:59:29.590Z,100084.56
2022-12-14T10:02:29.863Z,100080.28
2022-12-14T10:05:07.377Z,100081.34
2022-12-14T10:07:42.602Z,100070.97
2022-12-14T10:10:20.488Z,100062.47
2022-12-14T10:12:58.844Z,100070.31
2022-12-14T10:15:31.230Z,100058.28
2022-12-14T10:18:34.100Z,100058.41
2022-12-14T10:21:06.986Z,100054.06
2022-12-14T10:23:35.761Z,100052.34
2022-12-14T10:26:08.955Z,100046.34
2022-12-14T10:28:46.715Z,100044.75
2022-12-14T10:31:20.823Z,100045.72
2022-12-14T10:33:51.746Z,100029.31
2022-12-14T10:36:24.337Z,100030.16
2022-12-14T10:38:59.374Z,100032.03
2022-12-14T10:41:39.549Z,100033.88
2022-12-14T10:44:18.933Z,100031.38
2022-12-14T10:46:55.185Z,100034.06
2022-12-14T10:49:29.499Z,100027.22
2022-12-14T10:52:03.089Z,100028.97
2022-12-14T10:54:34.900Z,100022.97
2022-12-14T10:57:02.977Z,100029.16
2022-12-14T10:59:40.665Z,100021.41
2022-12-14T11:02:18.059Z,100019.78
2022-12-14T11:04:51.335Z,100018.06
2022-12-14T11:07:22.238Z,100006.88
2022-12-14T11:09:50.611Z,100008.69
2022-12-14T11:12:22.969Z,100006.94
2022-12-14T11:14:57.290Z,100005.28
2022-12-14T11:17:36.802Z,100001.00
2022-12-14T11:20:18.558Z,100007.22
2022-12-14T11:22:48.241Z,99989.72
2022-12-14T11:25:40.011Z,100001.22
2022-12-14T11:28:28.115Z,99996.94
2022-12-14T11:31:02.981Z,100000.53
2022-12-14T11:33:35.910Z,99996.19
2022-12-14T11:36:06.868Z,99988.34
2022-12-14T11:38:35.230Z,99996.31
2022-12-14T11:41:11.049Z,99993.69
2022-12-14T11:43:40.602Z,99988.50
2022-12-14T11:46:08.928Z,99986.81
2022-12-14T11:48:39.311Z,99981.66
2022-12-14T11:51:13.653Z,99981.66
2022-12-14T11:53:41.696Z,99975.66
2022-12-14T11:56:16.332Z,99977.50
2022-12-14T11:58:50.327Z,99982.75
2022-12-14T12:01:24.392Z,99984.59
2022-12-14T12:03:56.842Z,99977.66
2022-12-14T12:06:29.419Z,99978.66
2022-12-14T12:09:00.873Z,99971.72
2022-12-14T12:11:32.095Z,99977.75
2022-12-14T12:14:01.881Z,99974.38
2022-12-14T12:16:32.729Z,99964.84
2022-12-14T12:19:11.792Z,99965.78
2022-12-14T12:21:44.598Z,99967.56
2022-12-14T12:24:19.488Z,99965.00
2022-12-14T12:26:50.985Z,99959.78
2022-12-14T12:29:25.273Z,99962.44
2022-12-14T12:31:58.748Z,99965.06
2022-12-14T12:34:31.828Z,99968.56
2022-12-14T12:40:00.151Z,99964.22
2022-12-14T12:42:39.243Z,99955.56
2022-12-14T12:45:15.723Z,99961.69
2022-12-14T12:47:48.380Z,99952.16
2022-12-14T12:50:18.697Z,99947.84
2022-12-14T12:53:04.061Z,99954.00
2022-12-14T12:55:36.834Z,99947.97
2022-12-14T12:58:09.692Z,99946.19
2022-12-14T13:00:41.269Z,99945.38
2022-12-14T13:03:15.036Z,99940.16
2022-12-14T13:05:46.801Z,99938.47
2022-12-14T13:08:23.542Z,99934.19
2022-12-14T13:11:25.727Z,99931.56
2022-12-14T13:13:46.247Z,99928.09
2022-12-14T13:16:26.197Z,99922.06
2022-12-14T13:19:19.111Z,99922.06
2022-12-14T13:21:52.111Z,99921.25
2022-12-14T13:24:23.191Z,99901.97
2022-12-14T13:27:17.254Z,99917.84
2022-12-14T13:30:01.720Z,99912.72
2022-12-14T13:32:43.658Z,99917.09
2022-12-14T13:35:29.165Z,99924.09
2022-12-14T13:38:15.569Z,99916.25
2022-12-14T13:41:08.733Z,99921.50
2022-12-14T13:43:52.382Z,99919.84
2022-12-14T13:46:22.574Z,99903.16
2022-12-14T13:48:54.254Z,99920.63
2022-12-14T13:51:29.340Z,99917.22
2022-12-14T13:53:59.940Z,99911.16
2022-12-14T13:56:33.768Z,99912.13
2022-12-14T13:59:05.938Z,99920.84
2022-12-14T14:01:59.045Z,99919.03
2022-12-14T14:04:29.587Z,99916.34
2022-12-14T14:07:19.115Z,99918.97
2022-12-14T14:10:01.614Z,99911.09
2022-12-14T14:12:41.919Z,99913.72
2022-12-14T14:15:36.307Z,99913.66
2022-12-14T14:18:21.556Z,99917.03
2022-12-14T14:20:58.552Z,99916.06
2022-12-14T14:23:35.742Z,99914.28
2022-12-14T14:26:28.984Z,99912.41
2022-12-14T14:29:20.778Z,99909.75
2022-12-14T14:31:52.614Z,99902.72
2022-12-14T14:34:25.427Z,99904.25
2022-12-14T14:36:53.866Z,99895.34
2022-12-14T14:39:56.699Z,99907.47
2022-12-14T14:42:26.262Z,99898.59
2022-12-14T14:44:59.095Z,99901.22
2022-12-14T14:47:31.146Z,99905.50
2022-12-14T14:50:02.399Z,99907.22
2022-12-14T14:52:59.172Z,99909.84
2022-12-14T14:56:05.204Z,99910.72
2022-12-14T14:58:36.272Z,99903.75
2022-12-14T15:01:29.332Z,99907.16
2022-12-14T15:04:02.503Z,99907.16
2022-12-14T15:06:33.330Z,99905.47
2022-12-14T15:09:06.504Z,99906.22
2022-12-14T15:11:43.442Z,99914.69
2022-12-14T15:14:43.278Z,99917.16
2022-12-14T15:17:20.552Z,99918.81
2022-12-14T15:19:49.085Z,99929.16
2022-12-14T15:22:19.483Z,99917.91
2022-12-14T15:24:50.544Z,99920.47
2022-12-14T15:27:26.171Z,99921.28
2022-12-14T15:29:55.977Z,99912.50
2022-12-14T15:32:26.273Z,99925.53
2022-12-14T15:35:00.684Z,99929.91
2022-12-14T15:37:31.406Z,99931.63
2022-12-14T15:40:05.468Z,99940.41
2022-12-14T15:42:33.484Z,99943.94
2022-12-14T15:45:10.440Z,99936.97
2022-12-14T15:47:39.774Z,99938.63
2022-12-14T15:50:21.597Z,99937.53
2022-12-14T15:52:50.778Z,99934.75
2022-12-14T15:55:27.154Z,99938.75
2022-12-14T15:57:55.510Z,99935.94
2022-12-14T16:00:23.511Z,99940.22
2022-12-14T16:02:53.528Z,99935.97
2022-12-14T16:05:23.577Z,99928.03
2022-12-14T16:07:55.444Z,99933.06
2022-12-14T16:10:27.217Z,99922.50
2022-12-14T16:12:58.537Z,99922.28
2022-12-14T16:15:29.051Z,99925.59
2022-12-14T16:18:02.573Z,99917.34
2022-12-14T16:20:32.917Z,99917.53
2022-12-14T16:23:05.241Z,99915.91
2022-12-14T16:25:35.770Z,99918.34
2022-12-14T16:28:26.773Z,99916.75
2022-12-14T16:30:59.338Z,99916.28
2022-12-14T16:33:30.057Z,99908.25
2022-12-14T16:36:04.433Z,99915.72
2022-12-14T16:38:37.268Z,99903.41
2022-12-14T16:41:05.615Z,99901.50
2022-12-14T16:43:36.774Z,99904.88
2022-12-14T16:46:17.356Z,99905.72
2022-12-14T16:49:09.542Z,99910.00
2022-12-14T16:54:31.368Z,99912.59
2022-12-14T16:57:02.312Z,99910.91
2022-12-14T16:59:39.605Z,99913.78
2022-12-14T17:02:25.476Z,99916.56
2022-12-14T17:04:54.065Z,99917.59
2022-12-14T17:07:27.158Z,99917.88
2022-12-14T17:09:56.474Z,99919.63
2022-12-14T17:12:27.211Z,99909.03
2022-12-14T17:14:55.412Z,99911.94
2022-12-14T17:17:29.302Z,99905.53
2022-12-14T17:19:57.609Z,99904.41
2022-12-14T17:22:30.539Z,99904.75
2022-12-14T17:24:59.366Z,99898.94
2022-12-14T17:27:27.660Z,99900.84
2022-12-14T17:29:57.346Z,99904.34
2022-12-14T17:32:29.581Z,99903.41
2022-12-14T17:34:57.841Z,99906.59
2022-12-14T17:37:32.371Z,99907.28
2022-12-14T17:40:04.285Z,99914.97
2022-12-14T17:42:32.317Z,99912.41
2022-12-14T17:45:01.126Z,99915.69
2022-12-14T17:47:29.172Z,99923.47
2022-12-14T17:49:57.221Z,99915.66
2022-12-14T17:52:30.147Z,99914.78
2022-12-14T17:54:58.737Z,99910.56
2022-12-14T17:57:27.759Z,99907.84
2022-12-14T18:00:16.128Z,99906.09
2022-12-14T18:02:46.497Z,99904.56
2022-12-14T18:05:19.686Z,99899.19
2022-12-14T18:07:49.879Z,99909.16
2022-12-14T18:10:19.626Z,99917.94
2022-12-14T18:12:48.106Z,99911.19
2022-12-14T18:15:20.729Z,99921.53
2022-12-14T18:17:49.416Z,99923.47
2022-12-14T18:20:18.877Z,99912.25
2022-12-14T18:22:49.487Z,99915.63
2022-12-14T18:25:32.369Z,99903.19
2022-12-14T18:28:01.533Z,99908.06
2022-12-14T18:30:35.037Z,99904.53
2022-12-14T18:33:07.799Z,99904.41
2022-12-14T18:35:37.120Z,99910.69
2022-12-14T18:38:05.137Z,99911.84
2022-12-14T18:40:34.982Z,99919.88
2022-12-14T18:43:02.924Z,99919.06
2022-12-14T18:45:34.767Z,99922.59
2022-12-14T18:48:03.192Z,99920.25
2022-12-14T18:50:31.396Z,99921.19
2022-12-14T18:52:59.399Z,99926.38
2022-12-14T18:55:29.856Z,99929.94
2022-12-14T18:58:01.929Z,99929.94
2022-12-14T19:00:32.689Z,99934.28
2022-12-14T19:03:02.725Z,99931.63
2022-12-14T19:05:31.493Z,99937.63
2022-12-14T19:08:00.921Z,99946.53
2022-12-14T19:10:31.422Z,99938.63
2022-12-14T19:13:00.824Z,99935.03
2022-12-14T19:15:31.349Z,99945.63
2022-12-14T19:17:59.686Z,99944.53
2022-12-14T19:20:28.812Z,99944.81
2022-12-14T19:22:56.860Z,99936.47
2022-12-14T19:25:25.891Z,99941.50
2022-12-14T19:28:31.004Z,99936.81
2022-12-14T19:30:45.991Z,99930.50
2022-12-14T19:33:14.053Z,99936.28
2022-12-14T19:35:42.759Z,99938.03
2022-12-14T19:38:13.847Z,99932.66
2022-12-14T19:40:42.392Z,99942.91
2022-12-14T19:43:10.392Z,99937.72
2022-12-14T19:45:39.423Z,99941.84
2022-12-14T19:48:12.884Z,99941.66
2022-12-14T19:50:41.397Z,99947.59
2022-12-14T19:53:09.355Z,99944.72
2022-12-14T19:55:37.352Z,99943.88
2022-12-14T19:58:05.442Z,99938.69
2022-12-14T20:00:33.560Z,99940.94
2022-12-14T20:03:01.794Z,99939.13
2022-12-14T20:05:31.271Z,99935.03
2022-12-14T20:07:59.202Z,99932.53
2022-12-14T20:10:27.205Z,99936.78
2022-12-14T20:12:55.184Z,99925.34
2022-12-14T20:15:23.138Z,99931.03
2022-12-14T20:17:51.163Z,99931.19
2022-12-14T20:20:19.300Z,99940.91
2022-12-14T20:22:49.110Z,99931.44
2022-12-14T20:25:17.317Z,99933.16
2022-12-14T20:27:45.360Z,99926.88
2022-12-14T20:30:13.840Z,99924.03
2022-12-14T20:32:41.928Z,99927.38
2022-12-14T20:35:11.926Z,99928.09
2022-12-14T20:37:39.963Z,99921.25
2022-12-14T20:40:11.184Z,99921.13
2022-12-14T20:42:39.209Z,99913.22
2022-12-14T20:45:08.455Z,99906.41
2022-12-14T20:47:36.841Z,99912.09
2022-12-14T20:50:05.630Z,99908.63
2022-12-14T20:52:33.703Z,99912.38
2022-12-14T20:55:01.688Z,99916.00
2022-12-14T20:57:33.132Z,99912.84
2022-12-14T21:00:01.402Z,99908.38
2022-12-14T21:02:29.676Z,99918.03
2022-12-14T21:04:57.789Z,99910.66
2022-12-14T21:07:26.453Z,99921.88
2022-12-14T21:09:54.680Z,99916.94
2022-12-14T21:12:22.687Z,99917.13
2022-12-14T21:14:54.704Z,99923.63
2022-12-14T21:17:24.445Z,99922.00
2022-12-14T21:19:52.847Z,99921.34
2022-12-14T21:22:23.336Z,99931.84
2022-12-14T21:25:07.822Z,99925.84
2022-12-14T21:27:38.265Z,99928.56
2022-12-14T21:30:11.167Z,99929.38
2022-12-14T21:32:39.867Z,99930.25
2022-12-14T21:35:08.381Z,99929.91
2022-12-14T21:37:38.841Z,99933.44
2022-12-14T21:40:28.737Z,99943.56
2022-12-14T21:42:55.718Z,99935.94
2022-12-14T21:45:25.176Z,99943.47
2022-12-14T21:47:53.178Z,99948.47
2022-12-14T21:50:21.175Z,99941.81
2022-12-14T21:52:49.178Z,99955.53
2022-12-14T21:55:17.276Z,99944.75
2022-12-14T21:58:02.719Z,99950.88
2022-12-14T22:00:32.112Z,99944.03
2022-12-14T22:03:00.229Z,99943.53
2022-12-14T22:05:28.270Z,99942.53
2022-12-14T22:07:56.552Z,99950.22
2022-12-14T22:10:25.254Z,99963.25
2022-12-14T22:12:53.530Z,99964.22
2022-12-14T22:15:21.724Z,99971.22
2022-12-14T22:17:52.569Z,99979.22
2022-12-14T22:20:20.711Z,99985.19
2022-12-14T22:22:48.677Z,99977.56
2022-12-14T22:25:17.071Z,99994.75
2022-12-14T22:27:49.613Z,99993.06
2022-12-14T22:30:18.556Z,99988.88
2022-12-14T22:32:46.491Z,99983.47
2022-12-14T22:35:16.068Z,99994.44
2022-12-14T22:37:44.040Z,99990.19
2022-12-14T22:40:12.686Z,99977.47
2022-12-14T22:42:40.696Z,99977.56
2022-12-14T22:45:09.786Z,99987.03
2022-12-14T22:47:37.989Z,99989.47
2022-12-14T22:50:07.211Z,99987.94
2022-12-14T22:52:36.635Z,99975.75
2022-12-14T22:55:05.283Z,99981.44
2022-12-14T22:57:39.017Z,99990.16
2022-12-14T23:00:11.622Z,99990.75
2022-12-14T23:02:40.388Z,99980.25
2022-12-14T23:05:10.803Z,99976.78
2022-12-14T23:07:42.212Z,99982.75
2022-12-14T23:10:27.879Z,99983.63
2022-12-14T23:13:13.334Z,99984.53
2022-12-14T23:15:58.968Z,99976.38
2022-12-14T23:18:44.553Z,99979.88
2022-12-14T23:21:31.561Z,99972.44
2022-12-14T23:24:18.610Z,99973.91
2022-12-14T23:27:09.136Z,99975.34
2022-12-14T23:29:55.445Z,99971.09
2022-12-14T23:32:41.132Z,99961.19
2022-12-14T23:35:26.643Z,99958.97
2022-12-14T23:38:12.353Z,99955.75
2022-12-14T23:40:59.274Z,99957.19
2022-12-14T23:43:44.813Z,99954.56
2022-12-14T23:46:30.531Z,99952.47
2022-12-14T23:49:16.434Z,99952.00
2022-12-14T23:52:02.242Z,99953.03
2022-12-14T23:54:48.007Z,99962.56
2022-12-14T23:57:34.992Z,99980.69
